Impacts METAR Board
IDs:

KTYR - Tyler/Pounds Fld, TX, US

Updated at: 0500 UTC 22 Oct 2021
Potential Impact None Slight Moderate High
Time 21/17Z 21/18Z 21/19Z 21/20Z 21/21Z 21/22Z 21/23Z 22/00Z 22/01Z 22/02Z 22/03Z 22/04Z 22/05Z
Temp 83 85 84 84 82 77 74 72 70 68 67
Dewpt 67 66 65 64 64 63 61 57 54 52 51
Altim 30.15 30.12 30.10 30.09 30.09 30.09 30.11 30.12 30.12 30.12 30.12
VIS 10 10 10 10 10 10 10 10 10 10 10
CIG -- -- -- 60 -- -- -- -- -- -- --
CoverCLRCLRCLRBKNCLRCLRCLRCLRCLRCLRCLR
FltCatVFRVFRVFRVFRVFRVFRVFRVFRVFRVFRVFR
WX----------------------
WDir30003303403403505020402050
WSpd 5 6 5 6 6 5 4 4 4 6 3
WGst -- -- -- -- -- -- -- -- -- -- --
Raw hourly METARs

KTYR 211753Z 30005KT 10SM CLR 28/19 A3015 RMK AO2 SLP203 6//// T02830194 10283 20172 $
KTYR 211853Z VRB06KT 10SM CLR 29/19 A3012 RMK AO2 SLP193 T02940189 $

KTYR 212053Z 33005KT 10SM CLR 29/18 A3010 RMK AO2 SLP185 T02890183 56018
KTYR 212153Z 34006KT 10SM SCT050 BKN060 29/18 A3009 RMK AO2 SLP184 T02890178
KTYR 212253Z 34006KT 10SM CLR 28/18 A3009 RMK AO2 SLP184 T02780178
KTYR 212353Z 35005KT 10SM CLR 25/17 A3009 RMK AO2 SLP184 T02500172 10306 20250 56002
KTYR 220053Z 05004KT 10SM CLR 23/16 A3011 RMK AO2 SLP190 T02330161
KTYR 220153Z 02004KT 10SM CLR 22/14 A3012 RMK AO2 SLP193 T02220139
KTYR 220253Z AUTO 04004KT 10SM CLR 21/12 A3012 RMK AO2 SLP193 T02110122 51009
KTYR 220353Z AUTO 02006KT 10SM CLR 20/11 A3012 RMK AO2 SLP195 T02000111
KTYR 220453Z AUTO 05003KT 10SM CLR 19/11 A3012 RMK AO2 SLPNO T01940106



Page loaded:  05:55 UTC  |   10:55 PM Pacific  |   11:55 PM Mountain  |   12:55 AM Central  |   01:55 AM Eastern

 

ADVISORIES

FORECASTS

FORECASTS

OBSERVATIONS

USER TOOLS

ABOUT US